createdAt,value
2023-07-04T00:00:07.331Z,57.90
2023-07-04T00:02:13.428Z,58.30
2023-07-04T00:04:24.440Z,57.80
2023-07-04T00:06:30.125Z,57.90
2023-07-04T00:08:35.193Z,58.50
2023-07-04T00:10:38.135Z,57.70
2023-07-04T00:12:41.491Z,57.80
2023-07-04T00:14:44.620Z,58.30
2023-07-04T00:16:46.392Z,58.20
2023-07-04T00:18:48.301Z,58.60
2023-07-04T00:20:56.708Z,57.90
2023-07-04T00:23:00.671Z,57.90
2023-07-04T00:25:02.472Z,58.00
2023-07-04T00:27:04.973Z,58.00
2023-07-04T00:29:07.257Z,58.10
2023-07-04T00:31:09.843Z,58.10
2023-07-04T00:33:11.806Z,58.60
2023-07-04T00:35:13.598Z,58.60
2023-07-04T00:37:15.292Z,59.00
2023-07-04T00:39:16.967Z,58.60
2023-07-04T00:41:23.165Z,58.70
2023-07-04T00:43:25.648Z,58.20
2023-07-04T00:45:28.653Z,58.90
2023-07-04T00:47:44.739Z,58.70
2023-07-04T00:49:49.376Z,58.50
2023-07-04T00:52:24.546Z,59.40
2023-07-04T00:54:30.333Z,58.70
2023-07-04T00:56:32.071Z,58.70
2023-07-04T00:58:34.631Z,59.00
2023-07-04T01:00:38.245Z,59.20
2023-07-04T01:02:39.987Z,59.10
2023-07-04T01:04:42.922Z,58.90
2023-07-04T01:06:56.245Z,59.30
2023-07-04T01:09:00.292Z,59.30
2023-07-04T01:11:06.649Z,59.40
2023-07-04T01:13:28.187Z,59.70
2023-07-04T01:15:31.504Z,59.60
2023-07-04T01:17:33.839Z,59.20
2023-07-04T01:19:39.655Z,59.90
2023-07-04T01:21:42.089Z,59.90
2023-07-04T01:23:48.855Z,59.40
2023-07-04T01:25:57.052Z,60.20
2023-07-04T01:28:04.161Z,59.90
2023-07-04T01:30:13.685Z,60.00
2023-07-04T01:32:16.326Z,60.30
2023-07-04T01:34:21.501Z,60.50
2023-07-04T01:36:25.688Z,60.10
2023-07-04T01:38:31.993Z,60.10
2023-07-04T01:40:35.212Z,59.90
2023-07-04T01:42:37.413Z,60.10
2023-07-04T01:44:39.395Z,60.00
2023-07-04T01:46:41.062Z,60.50
2023-07-04T01:48:42.989Z,59.90
2023-07-04T01:50:44.808Z,60.00
2023-07-04T01:52:46.512Z,59.80
2023-07-04T01:54:48.265Z,60.30
2023-07-04T01:56:54.099Z,59.80
2023-07-04T01:59:02.616Z,60.00
2023-07-04T02:01:04.537Z,60.50
2023-07-04T02:03:06.283Z,60.30
2023-07-04T02:05:08.334Z,60.70
2023-07-04T02:07:12.456Z,60.40
2023-07-04T02:09:17.658Z,60.70
2023-07-04T02:11:19.360Z,60.40
2023-07-04T02:13:21.140Z,60.40
2023-07-04T02:15:24.806Z,61.10
2023-07-04T02:17:26.580Z,61.30
2023-07-04T02:19:33.525Z,60.90
2023-07-04T02:21:35.970Z,60.80
2023-07-04T02:23:37.631Z,60.90
2023-07-04T02:25:42.531Z,60.80
2023-07-04T02:27:44.230Z,60.70
2023-07-04T02:29:49.203Z,60.60
2023-07-04T02:31:51.055Z,61.00
2023-07-04T02:33:53.030Z,61.00
2023-07-04T02:35:54.752Z,61.00
2023-07-04T02:37:57.558Z,61.20
2023-07-04T02:40:00.042Z,61.20
2023-07-04T02:42:03.069Z,61.30
2023-07-04T02:44:04.897Z,61.00
2023-07-04T02:46:07.435Z,61.20
2023-07-04T02:48:11.778Z,61.30
2023-07-04T02:50:13.838Z,61.10
2023-07-04T02:52:16.418Z,61.20
2023-07-04T02:54:18.134Z,61.00
2023-07-04T02:56:21.693Z,61.10
2023-07-04T02:58:23.834Z,60.70
2023-07-04T03:00:26.520Z,60.90
2023-07-04T03:02:28.405Z,60.80
2023-07-04T03:04:31.922Z,61.40
2023-07-04T03:06:33.973Z,61.60
2023-07-04T03:08:36.414Z,61.30
2023-07-04T03:10:39.217Z,61.60
2023-07-04T03:12:41.821Z,61.50
2023-07-04T03:14:43.591Z,61.10
2023-07-04T03:16:45.273Z,61.50
2023-07-04T03:18:47.610Z,60.90
2023-07-04T03:20:50.515Z,61.50
2023-07-04T03:23:04.303Z,61.30
2023-07-04T03:25:07.067Z,61.70
2023-07-04T03:27:10.337Z,61.70
2023-07-04T03:29:12.372Z,61.50
2023-07-04T03:31:14.496Z,61.30
2023-07-04T03:33:16.346Z,61.70
2023-07-04T03:35:18.323Z,61.60
2023-07-04T03:37:20.001Z,61.50
2023-07-04T03:39:21.669Z,61.50
2023-07-04T03:41:24.245Z,61.90
2023-07-04T03:43:26.154Z,61.70
2023-07-04T03:45:27.862Z,62.00
2023-07-04T03:47:29.915Z,61.70
2023-07-04T03:49:31.708Z,62.00
2023-07-04T03:51:33.406Z,62.10
2023-07-04T03:53:38.434Z,62.10
2023-07-04T03:55:40.609Z,61.50
2023-07-04T03:57:42.326Z,62.10
2023-07-04T03:59:49.910Z,61.80
2023-07-04T04:01:51.610Z,61.70
2023-07-04T04:03:55.192Z,61.90
2023-07-04T04:05:57.035Z,62.00
2023-07-04T04:07:58.696Z,62.00
2023-07-04T04:10:00.397Z,62.40
2023-07-04T04:12:02.485Z,62.00
2023-07-04T04:14:04.165Z,62.00
2023-07-04T04:16:05.858Z,61.70
2023-07-04T04:18:07.568Z,61.80
2023-07-04T04:20:15.038Z,61.90
2023-07-04T04:22:16.962Z,62.20
2023-07-04T04:24:18.771Z,61.80
2023-07-04T04:26:21.295Z,61.70
2023-07-04T04:28:23.069Z,62.10
2023-07-04T04:30:27.354Z,62.10
2023-07-04T04:32:29.010Z,61.50
2023-07-04T04:34:30.697Z,61.70
2023-07-04T04:36:33.147Z,61.80
2023-07-04T04:38:37.402Z,61.30
2023-07-04T04:40:39.717Z,61.80
2023-07-04T04:42:44.680Z,61.40
2023-07-04T04:44:46.494Z,61.30
2023-07-04T04:46:50.958Z,61.30
2023-07-04T04:48:52.724Z,61.50
2023-07-04T04:50:54.561Z,61.80
2023-07-04T04:52:59.318Z,62.30
2023-07-04T04:55:04.871Z,62.60
2023-07-04T04:57:06.552Z,61.80
2023-07-04T04:59:08.454Z,62.10
2023-07-04T05:01:17.628Z,62.00
2023-07-04T05:03:19.366Z,61.90
2023-07-04T05:05:21.154Z,62.10
2023-07-04T05:07:25.105Z,62.10
2023-07-04T05:09:26.815Z,61.70
2023-07-04T05:11:28.506Z,62.10
2023-07-04T05:13:30.201Z,61.90
2023-07-04T05:15:31.908Z,62.50
2023-07-04T05:17:33.611Z,62.50
2023-07-04T05:19:35.333Z,62.80
2023-07-04T05:21:37.078Z,62.70
2023-07-04T05:23:39.847Z,62.30
2023-07-04T05:25:41.595Z,63.00
2023-07-04T05:27:43.347Z,62.50
2023-07-04T05:29:48.574Z,62.70
2023-07-04T05:31:50.277Z,62.70
2023-07-04T05:33:52.717Z,62.70
2023-07-04T05:36:04.553Z,62.60
2023-07-04T05:38:06.273Z,62.80
2023-07-04T05:40:09.493Z,62.50
2023-07-04T05:42:11.229Z,62.60
2023-07-04T05:44:13.187Z,62.50
2023-07-04T05:46:15.886Z,62.20
2023-07-04T05:48:17.827Z,62.00
2023-07-04T05:50:19.526Z,61.60
2023-07-04T05:52:21.270Z,61.60
2023-07-04T05:54:22.912Z,61.20
2023-07-04T05:56:26.091Z,61.00
2023-07-04T05:58:27.785Z,61.00
2023-07-04T06:00:29.590Z,60.50
2023-07-04T06:02:33.037Z,60.50
2023-07-04T06:04:34.822Z,60.50
2023-07-04T06:06:40.682Z,61.40
2023-07-04T06:08:42.825Z,60.70
2023-07-04T06:10:44.532Z,60.40
2023-07-04T06:12:46.248Z,60.50
2023-07-04T06:14:47.928Z,60.60
2023-07-04T06:16:49.594Z,60.50
2023-07-04T06:18:53.824Z,59.80
2023-07-04T06:21:05.315Z,60.00
2023-07-04T06:23:07.029Z,59.80
2023-07-04T06:25:09.116Z,59.80
2023-07-04T06:27:11.436Z,59.80
2023-07-04T06:29:21.800Z,59.80
2023-07-04T06:31:23.658Z,59.80
2023-07-04T06:33:25.384Z,59.60
2023-07-04T06:35:27.104Z,59.50
2023-07-04T06:37:28.829Z,59.30
2023-07-04T06:39:36.603Z,59.40
2023-07-04T06:41:38.349Z,59.10
2023-07-04T06:43:41.638Z,59.10
2023-07-04T06:45:44.050Z,59.20
2023-07-04T06:47:45.739Z,59.10
2023-07-04T06:49:47.897Z,59.00
2023-07-04T06:51:49.653Z,58.90
2023-07-04T06:53:51.743Z,58.90
2023-07-04T06:55:54.163Z,58.70
2023-07-04T06:57:56.049Z,58.60
2023-07-04T06:59:57.814Z,58.40
2023-07-04T07:01:59.758Z,58.00
2023-07-04T07:04:01.731Z,57.90
2023-07-04T07:06:04.664Z,57.80
2023-07-04T07:08:06.376Z,57.60
2023-07-04T07:10:08.336Z,57.50
2023-07-04T07:12:10.969Z,57.10
2023-07-04T07:14:12.670Z,57.20
2023-07-04T07:16:17.513Z,57.10
2023-07-04T07:18:19.337Z,57.10
2023-07-04T07:20:21.069Z,57.20
2023-07-04T07:22:22.812Z,57.10
2023-07-04T07:24:26.956Z,57.30
2023-07-04T07:26:29.357Z,56.80
2023-07-04T07:28:35.684Z,57.00
2023-07-04T07:30:37.902Z,56.90
2023-07-04T07:32:40.608Z,56.90
2023-07-04T07:34:42.540Z,56.90
2023-07-04T07:36:44.698Z,56.80
2023-07-04T07:38:46.760Z,56.70
2023-07-04T07:40:54.612Z,56.80
2023-07-04T07:42:56.429Z,56.90
2023-07-04T07:44:58.314Z,56.70
2023-07-04T07:47:00.000Z,56.70
2023-07-04T07:49:01.988Z,56.80
2023-07-04T07:51:03.759Z,56.70
2023-07-04T07:53:05.469Z,56.50
2023-07-04T07:55:07.713Z,56.70
2023-07-04T07:57:15.273Z,56.70
2023-07-04T07:59:16.925Z,56.70
2023-07-04T08:01:18.648Z,56.70
2023-07-04T08:03:20.525Z,56.80
2023-07-04T08:05:22.430Z,56.80
2023-07-04T08:07:36.180Z,56.40
2023-07-04T08:09:38.881Z,56.40
2023-07-04T08:11:41.048Z,56.50
2023-07-04T08:13:43.039Z,56.40
2023-07-04T08:15:51.153Z,56.50
2023-07-04T08:17:52.918Z,56.30
2023-07-04T08:19:54.701Z,55.90
2023-07-04T08:21:56.557Z,55.70
2023-07-04T08:23:59.341Z,56.00
2023-07-04T08:26:01.087Z,56.00
2023-07-04T08:28:02.772Z,56.00
2023-07-04T08:30:05.023Z,55.80
2023-07-04T08:32:08.782Z,55.70
2023-07-04T08:34:11.537Z,55.80
2023-07-04T08:36:13.750Z,55.90
2023-07-04T08:38:17.061Z,55.90
2023-07-04T08:40:19.768Z,55.70
2023-07-04T08:42:22.727Z,55.80
2023-07-04T08:44:25.424Z,55.80
2023-07-04T08:46:29.457Z,55.80
2023-07-04T08:48:31.359Z,55.70
2023-07-04T08:50:36.300Z,55.60
2023-07-04T08:52:44.330Z,55.60
2023-07-04T08:54:46.094Z,55.50
2023-07-04T08:56:48.161Z,55.70
2023-07-04T08:58:54.987Z,55.40
2023-07-04T09:00:58.136Z,55.50
2023-07-04T09:03:03.016Z,55.20
2023-07-04T09:05:17.904Z,55.10
2023-07-04T09:07:29.035Z,55.40
2023-07-04T09:09:40.314Z,55.00
2023-07-04T09:11:42.614Z,55.50
2023-07-04T09:13:45.685Z,55.00
2023-07-04T09:15:48.142Z,55.00
2023-07-04T09:18:25.583Z,55.20
2023-07-04T09:20:30.362Z,55.10
2023-07-04T09:22:32.103Z,55.00
2023-07-04T09:24:35.368Z,54.70
2023-07-04T09:26:37.392Z,54.20
2023-07-04T09:28:41.814Z,54.30
2023-07-04T09:30:44.285Z,54.50
2023-07-04T09:32:48.576Z,53.70
2023-07-04T09:34:52.549Z,53.90
2023-07-04T09:36:55.240Z,53.20
2023-07-04T09:38:58.021Z,53.80
2023-07-04T09:41:00.836Z,53.40
2023-07-04T09:43:02.710Z,53.30
2023-07-04T09:45:08.818Z,53.80
2023-07-04T09:47:18.705Z,53.70
2023-07-04T09:49:20.394Z,53.60
2023-07-04T09:51:27.078Z,53.80
2023-07-04T09:53:29.054Z,53.10
2023-07-04T09:55:31.985Z,53.10
2023-07-04T09:57:33.871Z,52.80
2023-07-04T09:59:35.666Z,53.10
2023-07-04T10:01:38.776Z,52.60
2023-07-04T10:03:41.070Z,52.80
2023-07-04T10:05:43.407Z,52.70
2023-07-04T10:07:45.137Z,53.00
2023-07-04T10:09:58.730Z,53.10
2023-07-04T10:12:13.987Z,52.40
2023-07-04T10:14:16.419Z,52.60
2023-07-04T10:16:24.274Z,51.90
2023-07-04T10:18:28.834Z,52.10
2023-07-04T10:20:36.328Z,51.60
2023-07-04T10:22:47.039Z,51.90
2023-07-04T10:24:49.405Z,52.20
2023-07-04T10:26:55.947Z,52.00
2023-07-04T10:28:58.686Z,51.20
2023-07-04T10:31:04.021Z,51.70
2023-07-04T10:33:10.695Z,51.80
2023-07-04T10:35:14.645Z,52.00
2023-07-04T10:37:42.725Z,49.50
2023-07-04T10:39:44.757Z,50.70
2023-07-04T10:41:49.558Z,51.80
2023-07-04T10:43:54.083Z,51.40
2023-07-04T10:46:01.723Z,51.40
2023-07-04T10:48:07.335Z,51.30
2023-07-04T10:50:13.339Z,51.30
2023-07-04T10:52:22.723Z,51.20
2023-07-04T10:54:24.424Z,51.30
2023-07-04T10:56:29.582Z,51.60
2023-07-04T10:58:34.459Z,50.90
2023-07-04T11:00:38.467Z,51.50
2023-07-04T11:02:49.544Z,51.50
2023-07-04T11:04:51.439Z,51.20
2023-07-04T11:06:55.891Z,50.00
2023-07-04T11:08:58.476Z,45.00
2023-07-04T11:11:01.962Z,49.20
2023-07-04T11:13:03.728Z,49.80
2023-07-04T11:15:09.887Z,49.80
2023-07-04T11:17:13.089Z,49.80
2023-07-04T11:19:16.895Z,50.90
2023-07-04T11:21:21.157Z,50.20
2023-07-04T11:23:23.876Z,50.10
2023-07-04T11:25:25.579Z,49.50
2023-07-04T11:27:31.483Z,49.50
2023-07-04T11:29:45.339Z,48.70
2023-07-04T11:32:03.312Z,49.40
2023-07-04T11:34:08.813Z,49.80
2023-07-04T11:36:18.518Z,50.10
2023-07-04T11:38:20.266Z,46.20
2023-07-04T11:40:25.732Z,48.90
2023-07-04T11:42:27.423Z,45.30
2023-07-04T11:44:29.559Z,47.40
2023-07-04T11:46:31.441Z,47.80
2023-07-04T11:48:34.305Z,46.30
2023-07-04T11:50:40.039Z,48.30
2023-07-04T11:52:43.368Z,49.10
2023-07-04T11:54:45.818Z,47.90
2023-07-04T11:56:47.623Z,46.80
2023-07-04T11:59:09.284Z,48.10
2023-07-04T12:01:11.408Z,48.20
2023-07-04T12:03:19.555Z,47.60
2023-07-04T12:05:36.826Z,48.00
2023-07-04T12:07:47.365Z,48.30
2023-07-04T12:09:49.677Z,48.90
2023-07-04T12:11:52.486Z,48.10
2023-07-04T12:13:55.147Z,48.20
2023-07-04T12:15:57.351Z,48.30
2023-07-04T12:18:00.056Z,48.60
2023-07-04T12:20:04.844Z,48.00
2023-07-04T12:22:09.226Z,49.10
2023-07-04T12:24:12.114Z,48.10
2023-07-04T12:26:22.366Z,48.50
2023-07-04T12:28:25.459Z,46.90
2023-07-04T12:30:38.822Z,47.10
2023-07-04T12:32:41.293Z,47.60
2023-07-04T12:39:05.995Z,46.80
2023-07-04T12:41:07.998Z,47.20
2023-07-04T12:45:16.868Z,47.20
2023-07-04T12:47:22.260Z,47.00
2023-07-04T12:49:29.716Z,47.10
2023-07-04T12:51:33.836Z,46.90
2023-07-04T12:53:35.727Z,47.10
2023-07-04T12:55:38.168Z,47.40
2023-07-04T12:57:40.051Z,46.80
2023-07-04T12:59:42.081Z,46.60
2023-07-04T13:01:43.959Z,46.50
2023-07-04T13:03:46.663Z,47.00
2023-07-04T13:05:50.495Z,47.30
2023-07-04T13:07:52.260Z,47.20
2023-07-04T13:09:58.021Z,47.30
2023-07-04T13:12:00.892Z,47.00
2023-07-04T13:14:09.894Z,46.80
2023-07-04T13:16:14.818Z,46.50
2023-07-04T13:18:35.598Z,46.60
2023-07-04T13:20:38.789Z,46.80
2023-07-04T13:26:57.622Z,46.30
2023-07-04T13:33:29.865Z,44.60
2023-07-04T13:35:40.643Z,45.00
2023-07-04T13:39:53.123Z,45.70
2023-07-04T13:41:56.514Z,45.90
2023-07-04T13:46:11.835Z,45.80
2023-07-04T13:48:13.730Z,45.60
2023-07-04T13:50:15.652Z,45.80
2023-07-04T13:52:17.825Z,45.90
2023-07-04T13:54:19.605Z,45.90
2023-07-04T13:56:21.376Z,46.20
2023-07-04T13:58:23.145Z,45.50
2023-07-04T14:00:35.195Z,45.30
2023-07-04T14:06:56.183Z,45.30
2023-07-04T14:08:58.285Z,44.30
2023-07-04T14:11:10.845Z,44.70
2023-07-04T14:13:20.566Z,45.00
2023-07-04T14:16:37.334Z,45.00
2023-07-04T14:19:56.767Z,44.90
2023-07-04T14:20:07.658Z,45.30
2023-07-04T14:22:09.892Z,44.40
2023-07-04T14:24:11.792Z,44.60
2023-07-04T14:26:22.496Z,44.70
2023-07-04T14:28:29.542Z,44.60
2023-07-04T14:30:31.304Z,44.30
2023-07-04T14:32:36.787Z,45.00
2023-07-04T14:34:41.351Z,44.50
2023-07-04T14:36:43.248Z,45.00
2023-07-04T14:38:45.460Z,44.40
2023-07-04T14:42:51.875Z,44.70
2023-07-04T14:44:53.637Z,44.60
2023-07-04T14:46:55.706Z,44.90
2023-07-04T14:48:57.667Z,44.50
2023-07-04T14:51:00.358Z,44.20
2023-07-04T14:53:02.161Z,44.40
2023-07-04T14:55:09.354Z,44.40
2023-07-04T14:57:11.040Z,44.90
2023-07-04T14:59:12.802Z,45.80
2023-07-04T15:01:24.120Z,44.60
2023-07-04T15:03:27.339Z,42.80
2023-07-04T15:05:29.128Z,43.90
2023-07-04T15:07:30.773Z,43.90
2023-07-04T15:09:32.872Z,43.50
2023-07-04T15:11:37.597Z,44.00
2023-07-04T15:13:39.583Z,44.70
2023-07-04T15:15:41.312Z,44.20
2023-07-04T15:17:42.997Z,44.50
2023-07-04T15:19:45.888Z,44.50
2023-07-04T15:21:47.692Z,44.40
2023-07-04T15:23:49.547Z,44.30
2023-07-04T15:25:52.645Z,43.70
2023-07-04T15:27:55.722Z,44.00
2023-07-04T15:29:57.813Z,44.30
2023-07-04T15:32:02.438Z,44.10
2023-07-04T15:34:04.254Z,43.40
2023-07-04T15:36:06.244Z,43.60
2023-07-04T15:38:07.927Z,40.60
2023-07-04T15:40:09.922Z,42.50
2023-07-04T15:42:11.764Z,42.20
2023-07-04T15:44:13.488Z,42.60
2023-07-04T15:46:15.924Z,44.20
2023-07-04T15:48:17.718Z,42.10
2023-07-04T15:50:19.534Z,42.50
2023-07-04T15:52:21.399Z,42.90
2023-07-04T15:54:23.445Z,43.70
2023-07-04T15:56:25.201Z,42.00
2023-07-04T15:58:29.781Z,42.20
2023-07-04T16:00:31.577Z,41.80
2023-07-04T16:02:33.428Z,41.80
2023-07-04T16:04:37.045Z,41.80
2023-07-04T16:06:39.260Z,41.60
2023-07-04T16:08:41.747Z,41.50
2023-07-04T16:10:43.574Z,41.50
2023-07-04T16:12:45.993Z,41.70
2023-07-04T16:14:47.818Z,42.00
2023-07-04T16:16:49.580Z,41.80
2023-07-04T16:18:51.361Z,42.10
2023-07-04T16:20:53.667Z,41.80
2023-07-04T16:22:55.577Z,42.00
2023-07-04T16:24:57.348Z,42.60
2023-07-04T16:26:59.064Z,40.80
2023-07-04T16:29:01.024Z,40.90
2023-07-04T16:31:03.737Z,40.60
2023-07-04T16:33:05.543Z,40.90
2023-07-04T16:35:07.535Z,40.80
2023-07-04T16:37:09.227Z,41.20
2023-07-04T16:39:11.084Z,40.90
2023-07-04T16:41:13.540Z,41.10
2023-07-04T16:43:15.269Z,41.40
2023-07-04T16:45:17.082Z,40.70
2023-07-04T16:47:19.473Z,39.30
2023-07-04T16:49:21.171Z,40.70
2023-07-04T16:51:22.855Z,40.10
2023-07-04T16:53:25.008Z,40.50
2023-07-04T16:55:35.772Z,40.50
2023-07-04T16:57:37.505Z,40.80
2023-07-04T16:59:39.316Z,40.70
2023-07-04T17:01:41.560Z,40.80
2023-07-04T17:03:45.384Z,40.80
2023-07-04T17:05:48.195Z,41.20
2023-07-04T17:07:50.122Z,41.20
2023-07-04T17:09:51.799Z,41.40
2023-07-04T17:12:05.339Z,41.30
2023-07-04T17:14:08.346Z,41.30
2023-07-04T17:16:11.035Z,41.20
2023-07-04T17:18:12.834Z,41.40
2023-07-04T17:20:14.739Z,41.70
2023-07-04T17:22:16.647Z,41.60
2023-07-04T17:24:18.421Z,41.90
2023-07-04T17:26:20.184Z,42.20
2023-07-04T17:28:22.117Z,41.90
2023-07-04T17:30:23.817Z,41.70
2023-07-04T17:32:25.629Z,41.90
2023-07-04T17:34:28.962Z,41.80
2023-07-04T17:36:31.487Z,41.60
2023-07-04T17:38:34.639Z,41.80
2023-07-04T17:40:38.187Z,42.20
2023-07-04T17:42:40.519Z,42.50
2023-07-04T17:44:42.250Z,42.50
2023-07-04T17:46:43.939Z,42.60
2023-07-04T17:48:46.376Z,42.60
2023-07-04T17:50:48.212Z,42.90
2023-07-04T17:52:49.926Z,42.90
2023-07-04T17:54:51.723Z,42.90
2023-07-04T17:56:53.768Z,43.00
2023-07-04T17:58:55.531Z,43.00
2023-07-04T18:01:01.711Z,43.10
2023-07-04T18:03:03.672Z,43.30
2023-07-04T18:05:05.582Z,43.40
2023-07-04T18:07:08.971Z,43.50
2023-07-04T18:09:10.976Z,43.60
2023-07-04T18:11:17.342Z,43.80
2023-07-04T18:13:19.036Z,43.90
2023-07-04T18:15:20.918Z,44.10
2023-07-04T18:17:23.044Z,44.10
2023-07-04T18:19:24.876Z,44.30
2023-07-04T18:21:26.814Z,44.40
2023-07-04T18:23:28.645Z,44.50
2023-07-04T18:25:30.427Z,44.50
2023-07-04T18:27:32.531Z,44.50
2023-07-04T18:29:34.596Z,44.50
2023-07-04T18:31:36.548Z,44.60
2023-07-04T18:33:39.512Z,44.70
2023-07-04T18:35:41.510Z,44.70
2023-07-04T18:37:43.230Z,44.90
2023-07-04T18:39:45.211Z,44.90
2023-07-04T18:41:47.046Z,45.00
2023-07-04T18:43:49.177Z,45.10
2023-07-04T18:45:50.924Z,45.10
2023-07-04T18:47:56.522Z,45.20
2023-07-04T18:49:58.330Z,45.20
2023-07-04T18:52:00.165Z,45.20
2023-07-04T18:54:02.626Z,44.90
2023-07-04T18:56:04.558Z,44.90
2023-07-04T18:58:06.831Z,44.90
2023-07-04T19:00:08.967Z,44.80
2023-07-04T19:02:11.156Z,44.90
2023-07-04T19:04:13.405Z,44.90
2023-07-04T19:06:16.505Z,44.90
2023-07-04T19:08:18.363Z,45.00
2023-07-04T19:10:20.780Z,45.30
2023-07-04T19:12:22.679Z,45.40
2023-07-04T19:14:24.526Z,45.40
2023-07-04T19:16:27.851Z,46.00
2023-07-04T19:18:29.752Z,45.30
2023-07-04T19:20:31.527Z,45.30
2023-07-04T19:22:34.511Z,45.40
2023-07-04T19:24:38.299Z,45.40
2023-07-04T19:26:40.232Z,45.40
2023-07-04T19:28:41.959Z,45.60
2023-07-04T19:30:44.526Z,45.60
2023-07-04T19:32:46.424Z,45.70
2023-07-04T19:34:48.302Z,45.80
2023-07-04T19:36:51.939Z,45.70
2023-07-04T19:38:53.837Z,45.60
2023-07-04T19:41:03.247Z,45.80
2023-07-04T19:43:05.405Z,46.00
2023-07-04T19:45:07.552Z,46.10
2023-07-04T19:47:09.386Z,46.20
2023-07-04T19:49:12.849Z,46.20
2023-07-04T19:51:16.767Z,46.40
2023-07-04T19:53:19.190Z,46.50
2023-07-04T19:55:20.982Z,46.50
2023-07-04T19:57:23.016Z,46.60
2023-07-04T19:59:25.331Z,46.70
2023-07-04T20:01:28.154Z,46.70
2023-07-04T20:03:30.099Z,46.40
2023-07-04T20:05:31.963Z,46.70
2023-07-04T20:07:33.716Z,46.50
2023-07-04T20:09:35.569Z,46.70
2023-07-04T20:11:37.614Z,46.90
2023-07-04T20:13:39.846Z,46.90
2023-07-04T20:15:44.411Z,46.50
2023-07-04T20:17:46.192Z,46.50
2023-07-04T20:19:48.767Z,46.60
2023-07-04T20:21:50.674Z,46.70
2023-07-04T20:23:52.576Z,46.70
2023-07-04T20:25:55.084Z,46.80
2023-07-04T20:27:57.289Z,47.00
2023-07-04T20:29:58.998Z,47.00
2023-07-04T20:32:01.056Z,47.20
2023-07-04T20:34:03.302Z,47.30
2023-07-04T20:36:05.622Z,47.50
2023-07-04T20:38:07.525Z,47.30
2023-07-04T20:40:09.955Z,47.30
2023-07-04T20:42:11.812Z,47.30
2023-07-04T20:44:13.595Z,47.40
2023-07-04T20:46:15.349Z,47.50
2023-07-04T20:48:17.188Z,47.60
2023-07-04T20:50:19.799Z,47.70
2023-07-04T20:52:23.592Z,47.60
2023-07-04T20:54:25.602Z,47.80
2023-07-04T20:56:27.363Z,47.70
2023-07-04T20:58:29.133Z,47.70
2023-07-04T21:00:33.512Z,47.80
2023-07-04T21:02:35.282Z,48.10
2023-07-04T21:04:37.085Z,48.00
2023-07-04T21:06:38.910Z,48.20
2023-07-04T21:08:40.767Z,48.30
2023-07-04T21:10:42.464Z,48.40
2023-07-04T21:12:44.259Z,48.50
2023-07-04T21:14:54.895Z,48.60
2023-07-04T21:16:56.717Z,48.60
2023-07-04T21:18:58.439Z,48.90
2023-07-04T21:21:00.282Z,48.80
2023-07-04T21:23:02.087Z,49.00
2023-07-04T21:25:05.582Z,49.20
2023-07-04T21:27:07.488Z,49.20
2023-07-04T21:29:09.228Z,49.20
2023-07-04T21:31:11.656Z,49.00
2023-07-04T21:33:13.496Z,49.10
2023-07-04T21:35:15.333Z,49.90
2023-07-04T21:37:17.180Z,49.40
2023-07-04T21:39:18.950Z,49.20
2023-07-04T21:41:21.189Z,49.20
2023-07-04T21:43:23.099Z,49.40
2023-07-04T21:45:30.722Z,49.70
2023-07-04T21:47:33.164Z,49.90
2023-07-04T21:49:35.595Z,49.80
2023-07-04T21:51:37.391Z,50.00
2023-07-04T21:53:40.217Z,50.10
2023-07-04T21:56:00.258Z,50.00
2023-07-04T21:58:02.044Z,50.10
2023-07-04T22:00:04.905Z,50.30
2023-07-04T22:02:06.736Z,50.50
2023-07-04T22:04:08.879Z,50.20
2023-07-04T22:06:12.514Z,50.10
2023-07-04T22:08:14.994Z,50.50
2023-07-04T22:10:16.775Z,50.70
2023-07-04T22:12:18.450Z,50.80
2023-07-04T22:14:31.991Z,50.90
2023-07-04T22:16:39.536Z,50.50
2023-07-04T22:18:41.300Z,51.00
2023-07-04T22:20:45.007Z,50.80
2023-07-04T22:22:46.821Z,51.00
2023-07-04T22:24:48.687Z,51.10
2023-07-04T22:26:50.339Z,51.10
2023-07-04T22:28:52.909Z,51.40
2023-07-04T22:30:57.923Z,51.80
2023-07-04T22:32:59.704Z,51.50
2023-07-04T22:35:01.575Z,51.60
2023-07-04T22:37:03.358Z,51.40
2023-07-04T22:39:05.383Z,51.60
2023-07-04T22:41:07.345Z,51.60
2023-07-04T22:43:09.303Z,51.60
2023-07-04T22:45:11.249Z,51.80
2023-07-04T22:47:12.923Z,51.80
2023-07-04T22:49:14.610Z,52.10
2023-07-04T22:51:16.424Z,51.90
2023-07-04T22:53:18.125Z,52.10
2023-07-04T22:55:20.073Z,52.30
2023-07-04T22:57:21.806Z,52.30
2023-07-04T22:59:23.789Z,52.40
2023-07-04T23:01:28.601Z,51.90
2023-07-04T23:03:30.418Z,52.40
2023-07-04T23:05:32.922Z,52.60
2023-07-04T23:07:34.605Z,52.70
2023-07-04T23:09:36.635Z,52.60
2023-07-04T23:11:38.416Z,52.70
2023-07-04T23:13:40.575Z,52.80
2023-07-04T23:15:42.297Z,52.60
2023-07-04T23:17:44.016Z,52.70
2023-07-04T23:19:45.727Z,52.90
2023-07-04T23:21:47.583Z,53.00
2023-07-04T23:23:50.534Z,53.50
2023-07-04T23:25:52.532Z,53.00
2023-07-04T23:27:54.440Z,53.10
2023-07-04T23:29:56.168Z,52.80
2023-07-04T23:31:58.177Z,53.10
2023-07-04T23:34:00.607Z,53.10
2023-07-04T23:36:02.785Z,53.10
2023-07-04T23:38:05.047Z,53.40
2023-07-04T23:40:06.957Z,53.40
2023-07-04T23:42:08.732Z,53.10
2023-07-04T23:44:10.379Z,53.10
2023-07-04T23:46:12.164Z,53.30
2023-07-04T23:48:14.235Z,53.60
2023-07-04T23:50:16.165Z,53.10
2023-07-04T23:52:17.999Z,53.40
2023-07-04T23:54:19.672Z,53.50
2023-07-04T23:56:22.510Z,53.70
2023-07-04T23:58:24.554Z,53.50
